createdAt,value
2022-12-29T00:00:06.663Z,5.83
2022-12-29T00:02:54.436Z,5.30
2022-12-29T00:05:40.731Z,4.67
2022-12-29T00:08:40.812Z,5.20
2022-12-29T00:11:28.434Z,4.53
2022-12-29T00:14:31.889Z,5.00
2022-12-29T00:17:18.433Z,4.13
2022-12-29T00:20:23.825Z,5.80
2022-12-29T00:23:28.243Z,6.70
2022-12-29T00:26:32.780Z,5.47
2022-12-29T00:29:37.213Z,4.70
2022-12-29T00:32:52.508Z,3.27
2022-12-29T00:35:41.296Z,4.03
2022-12-29T00:38:45.900Z,4.17
2022-12-29T00:41:52.225Z,4.97
2022-12-29T00:44:38.797Z,5.77
2022-12-29T00:47:25.200Z,5.23
2022-12-29T00:50:10.410Z,5.37
2022-12-29T00:52:57.958Z,4.50
2022-12-29T00:55:44.523Z,3.90
2022-12-29T00:58:30.632Z,5.27
2022-12-29T01:01:17.130Z,5.57
2022-12-29T01:04:04.907Z,4.40
2022-12-29T01:06:51.569Z,5.40
2022-12-29T01:09:57.422Z,4.33
2022-12-29T01:12:46.104Z,5.03
2022-12-29T01:15:32.727Z,4.57
2022-12-29T01:18:20.896Z,3.73
2022-12-29T01:21:07.996Z,4.40
2022-12-29T01:23:54.486Z,5.20
2022-12-29T01:26:43.467Z,3.90
2022-12-29T01:29:29.936Z,4.10
2022-12-29T01:32:16.193Z,3.77
2022-12-29T01:35:04.366Z,3.10
2022-12-29T01:37:50.616Z,3.57
2022-12-29T01:40:44.788Z,3.33
2022-12-29T01:43:42.447Z,3.87
2022-12-29T01:46:30.315Z,3.87
2022-12-29T01:49:18.190Z,3.73
2022-12-29T01:52:07.525Z,3.33
2022-12-29T01:54:56.235Z,2.57
2022-12-29T01:57:44.905Z,2.87
2022-12-29T02:00:32.898Z,2.80
2022-12-29T02:03:20.182Z,3.00
2022-12-29T02:06:10.626Z,3.33
2022-12-29T02:08:58.427Z,2.87
2022-12-29T02:11:44.855Z,2.87
2022-12-29T02:14:32.090Z,2.93
2022-12-29T02:17:25.675Z,3.07
2022-12-29T02:20:39.920Z,3.13
2022-12-29T02:23:48.236Z,4.73
2022-12-29T02:26:46.724Z,3.93
2022-12-29T02:29:47.572Z,4.27
2022-12-29T02:32:39.683Z,4.93
2022-12-29T02:35:29.860Z,4.47
2022-12-29T02:38:20.004Z,3.20
2022-12-29T02:41:08.160Z,4.10
2022-12-29T02:43:57.975Z,3.37
2022-12-29T02:46:46.942Z,3.70
2022-12-29T02:49:36.445Z,5.07
2022-12-29T02:52:25.571Z,2.87
2022-12-29T02:55:12.800Z,3.40
2022-12-29T02:58:18.602Z,3.97
2022-12-29T03:01:12.868Z,3.83
2022-12-29T03:04:14.663Z,3.30
2022-12-29T03:07:04.738Z,3.20
2022-12-29T03:09:54.646Z,3.13
2022-12-29T03:13:01.778Z,3.87
2022-12-29T03:16:05.257Z,3.57
2022-12-29T03:18:54.633Z,4.03
2022-12-29T03:21:59.418Z,2.90
2022-12-29T03:24:49.724Z,4.03
2022-12-29T03:27:37.552Z,5.03
2022-12-29T03:30:24.671Z,4.33
2022-12-29T03:33:12.788Z,4.83
2022-12-29T03:36:01.053Z,3.87
2022-12-29T03:38:50.641Z,3.67
2022-12-29T03:41:39.008Z,3.53
2022-12-29T03:44:33.666Z,4.13
2022-12-29T03:47:20.257Z,3.13
2022-12-29T03:50:06.772Z,3.57
2022-12-29T03:52:53.764Z,2.73
2022-12-29T03:55:39.933Z,3.40
2022-12-29T03:58:28.203Z,3.23
2022-12-29T04:01:14.934Z,4.07
2022-12-29T04:04:01.365Z,3.47
2022-12-29T04:06:47.431Z,4.00
2022-12-29T04:09:33.712Z,3.23
2022-12-29T04:12:20.807Z,3.47
2022-12-29T04:15:09.374Z,3.80
2022-12-29T04:17:55.714Z,3.87
2022-12-29T04:20:59.775Z,3.27
2022-12-29T04:23:45.910Z,3.57
2022-12-29T04:26:32.041Z,3.73
2022-12-29T04:29:18.309Z,5.60
2022-12-29T04:32:06.528Z,4.37
2022-12-29T04:34:53.665Z,4.23
2022-12-29T04:37:39.926Z,4.80
2022-12-29T04:40:26.080Z,3.80
2022-12-29T04:43:12.208Z,4.57
2022-12-29T04:45:58.640Z,3.93
2022-12-29T04:48:46.767Z,4.00
2022-12-29T04:51:33.275Z,5.70
2022-12-29T04:54:20.060Z,4.10
2022-12-29T04:57:06.583Z,5.23
2022-12-29T04:59:53.017Z,4.90
2022-12-29T05:02:40.119Z,4.73
2022-12-29T05:05:28.191Z,6.97
2022-12-29T05:08:14.672Z,4.93
2022-12-29T05:11:01.010Z,4.53
2022-12-29T05:13:47.378Z,4.93
2022-12-29T05:16:33.706Z,6.23
2022-12-29T05:19:20.216Z,5.73
2022-12-29T05:22:07.742Z,5.93
2022-12-29T05:24:54.095Z,5.57
2022-12-29T05:27:40.429Z,5.67
2022-12-29T05:30:27.005Z,7.40
2022-12-29T05:33:13.669Z,6.00
2022-12-29T05:36:05.459Z,5.77
2022-12-29T05:38:53.256Z,7.73
2022-12-29T05:41:39.567Z,7.03
2022-12-29T05:44:25.958Z,7.10
2022-12-29T05:47:12.350Z,7.43
2022-12-29T05:49:58.976Z,5.27
2022-12-29T05:52:45.159Z,5.47
2022-12-29T05:55:33.285Z,4.93
2022-12-29T05:58:20.102Z,4.77
2022-12-29T06:01:06.637Z,6.00
2022-12-29T06:03:53.081Z,5.60
2022-12-29T06:06:40.840Z,5.40
2022-12-29T06:09:27.446Z,4.80
2022-12-29T06:12:15.668Z,9.93
2022-12-29T06:15:02.184Z,9.63
2022-12-29T06:17:48.425Z,9.67
2022-12-29T06:20:34.637Z,8.47
2022-12-29T06:23:20.910Z,7.60
2022-12-29T06:26:07.554Z,7.20
2022-12-29T06:28:55.708Z,5.90
2022-12-29T06:31:42.336Z,5.20
2022-12-29T06:34:28.684Z,5.90
2022-12-29T06:37:15.830Z,4.63
2022-12-29T06:40:02.013Z,6.20
2022-12-29T06:42:48.207Z,6.10
2022-12-29T06:45:36.247Z,5.43
2022-12-29T06:48:22.672Z,6.70
2022-12-29T06:51:09.408Z,7.63
2022-12-29T06:53:56.071Z,7.57
2022-12-29T06:56:42.696Z,8.23
2022-12-29T06:59:28.777Z,9.30
2022-12-29T07:02:19.433Z,8.07
2022-12-29T07:05:06.209Z,7.80
2022-12-29T07:07:53.363Z,8.37
2022-12-29T07:10:39.872Z,8.33
2022-12-29T07:13:26.170Z,7.27
2022-12-29T07:16:12.774Z,7.10
2022-12-29T07:19:01.032Z,8.20
2022-12-29T07:21:47.993Z,6.73
2022-12-29T07:24:34.429Z,6.70
2022-12-29T07:27:20.655Z,7.50
2022-12-29T07:30:07.685Z,7.27
2022-12-29T07:32:54.217Z,8.17
2022-12-29T07:35:41.911Z,10.10
2022-12-29T07:38:28.476Z,8.07
2022-12-29T07:41:15.135Z,7.83
2022-12-29T07:44:01.697Z,8.60
2022-12-29T07:46:56.175Z,8.03
2022-12-29T07:49:44.445Z,7.57
2022-12-29T07:52:32.021Z,7.17
2022-12-29T07:55:18.723Z,7.30
2022-12-29T07:58:05.079Z,8.47
2022-12-29T08:00:55.139Z,8.93
2022-12-29T08:03:42.358Z,9.43
2022-12-29T08:06:30.227Z,7.37
2022-12-29T08:09:22.301Z,8.00
2022-12-29T08:12:10.512Z,9.13
2022-12-29T08:14:56.942Z,9.30
2022-12-29T08:17:43.393Z,8.20
2022-12-29T08:20:29.947Z,6.10
2022-12-29T08:23:16.158Z,6.80
2022-12-29T08:26:04.989Z,7.00
2022-12-29T08:28:51.410Z,6.60
2022-12-29T08:31:37.905Z,5.50
2022-12-29T08:34:24.638Z,5.10
2022-12-29T08:37:11.107Z,5.80
2022-12-29T08:39:58.853Z,6.43
2022-12-29T08:42:46.917Z,6.37
2022-12-29T08:45:33.627Z,5.40
2022-12-29T08:48:23.111Z,6.47
2022-12-29T08:51:10.560Z,6.37
2022-12-29T08:53:56.687Z,6.20
2022-12-29T08:56:43.318Z,4.43
2022-12-29T08:59:31.135Z,6.27
2022-12-29T09:02:23.720Z,6.53
2022-12-29T09:05:11.809Z,6.27
2022-12-29T09:07:58.355Z,6.00
2022-12-29T09:10:44.723Z,5.17
2022-12-29T09:13:30.923Z,4.90
2022-12-29T09:16:19.416Z,5.87
2022-12-29T09:19:06.142Z,5.57
2022-12-29T09:21:52.353Z,5.07
2022-12-29T09:24:38.929Z,5.53
2022-12-29T09:27:25.098Z,5.20
2022-12-29T09:30:12.756Z,5.83
2022-12-29T09:33:00.771Z,5.20
2022-12-29T09:35:47.971Z,4.70
2022-12-29T09:38:34.603Z,5.47
2022-12-29T09:41:23.272Z,4.43
2022-12-29T09:44:15.387Z,4.43
2022-12-29T09:47:02.621Z,5.17
2022-12-29T09:49:52.031Z,5.53
2022-12-29T09:52:39.122Z,4.97
2022-12-29T09:55:28.175Z,5.43
2022-12-29T09:58:16.353Z,5.13
2022-12-29T10:01:04.714Z,5.00
2022-12-29T10:03:53.089Z,6.20
2022-12-29T10:07:03.960Z,4.93
2022-12-29T10:09:55.730Z,5.80
2022-12-29T10:12:50.019Z,5.40
2022-12-29T10:15:41.504Z,5.07
2022-12-29T10:18:34.925Z,5.00
2022-12-29T10:21:27.033Z,4.70
2022-12-29T10:24:15.205Z,5.03
2022-12-29T10:27:01.675Z,4.90
2022-12-29T10:29:50.850Z,4.27
2022-12-29T10:32:39.270Z,4.60
2022-12-29T10:35:26.830Z,4.17
2022-12-29T10:38:16.750Z,3.97
2022-12-29T10:41:07.715Z,4.60
2022-12-29T10:43:55.459Z,4.50
2022-12-29T10:46:42.255Z,4.50
2022-12-29T10:49:29.416Z,9.63
2022-12-29T10:52:17.337Z,5.60
2022-12-29T10:55:05.322Z,4.87
2022-12-29T10:57:53.371Z,5.47
2022-12-29T11:00:39.483Z,4.67
2022-12-29T11:03:52.958Z,4.70
2022-12-29T11:06:39.013Z,4.67
2022-12-29T11:09:41.510Z,5.40
2022-12-29T11:12:29.800Z,4.90
2022-12-29T11:15:17.881Z,3.27
2022-12-29T11:18:04.267Z,3.67
2022-12-29T11:20:51.205Z,3.00
2022-12-29T11:23:38.356Z,3.93
2022-12-29T11:26:30.157Z,2.53
2022-12-29T11:29:26.056Z,3.90
2022-12-29T11:32:15.302Z,2.97
2022-12-29T11:35:02.814Z,2.73
2022-12-29T11:37:56.184Z,5.00
2022-12-29T11:40:42.488Z,4.30
2022-12-29T11:43:34.567Z,3.50
2022-12-29T11:46:22.390Z,2.87
2022-12-29T11:49:14.967Z,3.90
2022-12-29T11:52:01.786Z,4.20
2022-12-29T11:54:48.283Z,4.40
2022-12-29T11:57:35.690Z,5.20
2022-12-29T12:00:23.224Z,5.17
2022-12-29T12:03:12.337Z,5.60
2022-12-29T12:06:02.696Z,4.93
2022-12-29T12:08:52.703Z,5.27
2022-12-29T12:11:43.114Z,4.43
2022-12-29T12:14:31.717Z,4.77
2022-12-29T12:17:20.082Z,5.30
2022-12-29T12:20:09.441Z,5.57
2022-12-29T12:23:02.307Z,4.80
2022-12-29T12:25:53.660Z,5.23
2022-12-29T12:28:44.420Z,6.30
2022-12-29T12:31:40.287Z,6.73
2022-12-29T12:34:30.160Z,5.70
2022-12-29T12:37:31.214Z,6.37
2022-12-29T12:40:50.688Z,6.57
2022-12-29T12:43:44.003Z,6.20
2022-12-29T12:46:51.334Z,7.20
2022-12-29T12:50:04.388Z,5.57
2022-12-29T12:53:11.778Z,5.57
2022-12-29T12:56:07.968Z,5.83
2022-12-29T12:58:57.997Z,5.77
2022-12-29T13:01:50.756Z,7.07
2022-12-29T13:04:47.589Z,17.83
2022-12-29T13:07:39.735Z,14.93
2022-12-29T13:10:32.124Z,5.53
2022-12-29T13:13:29.511Z,5.03
2022-12-29T13:16:23.376Z,4.87
2022-12-29T13:19:13.170Z,4.63
2022-12-29T13:22:07.052Z,4.10
2022-12-29T13:24:58.430Z,5.67
2022-12-29T13:27:48.187Z,6.23
2022-12-29T13:30:36.449Z,7.90
2022-12-29T13:33:28.826Z,8.73
2022-12-29T13:36:20.707Z,5.50
2022-12-29T13:39:14.768Z,6.13
2022-12-29T13:42:04.730Z,8.10
2022-12-29T13:44:54.715Z,9.10
2022-12-29T13:47:43.023Z,5.83
2022-12-29T13:50:31.912Z,6.23
2022-12-29T13:53:21.557Z,6.83
2022-12-29T13:56:09.588Z,6.47
2022-12-29T13:58:58.527Z,6.27
2022-12-29T14:01:49.218Z,6.67
2022-12-29T14:04:36.797Z,6.67
2022-12-29T14:07:24.602Z,9.53
2022-12-29T14:10:27.949Z,9.13
2022-12-29T14:13:15.691Z,7.07
2022-12-29T14:16:02.808Z,11.37
2022-12-29T14:18:49.157Z,8.17
2022-12-29T14:21:36.213Z,8.57
2022-12-29T14:24:41.303Z,8.73
2022-12-29T14:27:48.590Z,7.27
2022-12-29T14:31:02.315Z,6.67
2022-12-29T14:34:17.356Z,9.13
2022-12-29T14:37:04.023Z,9.00
2022-12-29T14:39:51.623Z,9.30
2022-12-29T14:42:41.321Z,14.00
2022-12-29T14:45:29.617Z,9.77
2022-12-29T14:48:33.417Z,8.67
2022-12-29T14:51:21.302Z,6.97
2022-12-29T14:54:22.595Z,7.20
2022-12-29T14:57:13.250Z,13.70
2022-12-29T15:00:03.112Z,16.93
2022-12-29T15:02:51.798Z,16.10
2022-12-29T15:05:39.824Z,12.63
2022-12-29T15:08:27.889Z,9.27
2022-12-29T15:11:15.717Z,15.00
2022-12-29T15:14:03.559Z,17.60
2022-12-29T15:16:50.128Z,14.97
2022-12-29T15:19:37.806Z,16.13
2022-12-29T15:22:24.504Z,20.47
2022-12-29T15:25:16.843Z,17.63
2022-12-29T15:28:04.517Z,19.37
2022-12-29T15:30:57.409Z,16.30
2022-12-29T15:33:44.886Z,13.70
2022-12-29T15:36:38.853Z,12.57
2022-12-29T15:39:29.960Z,9.77
2022-12-29T15:42:24.879Z,11.70
2022-12-29T15:45:13.290Z,9.90
2022-12-29T15:48:01.442Z,10.80
2022-12-29T15:50:48.721Z,9.60
2022-12-29T15:53:35.469Z,16.60
2022-12-29T15:56:21.845Z,17.30
2022-12-29T15:59:24.171Z,17.23
2022-12-29T16:02:12.638Z,12.27
2022-12-29T16:05:17.073Z,28.43
2022-12-29T16:08:22.834Z,84.13
2022-12-29T16:11:16.928Z,57.43
2022-12-29T16:14:04.125Z,98.03
2022-12-29T16:16:51.491Z,94.17
2022-12-29T16:19:38.854Z,68.77
2022-12-29T16:22:29.027Z,32.50
2022-12-29T16:25:18.373Z,30.17
2022-12-29T16:28:16.052Z,30.03
2022-12-29T16:31:04.871Z,34.83
2022-12-29T16:33:52.020Z,32.37
2022-12-29T16:36:42.524Z,30.63
2022-12-29T16:39:32.287Z,50.27
2022-12-29T16:42:37.665Z,38.00
2022-12-29T16:45:48.422Z,34.13
2022-12-29T16:48:36.033Z,32.43
2022-12-29T16:51:27.155Z,28.73
2022-12-29T16:54:20.289Z,25.57
2022-12-29T16:57:09.319Z,29.77
2022-12-29T16:59:57.249Z,34.17
2022-12-29T17:02:46.113Z,35.03
2022-12-29T17:05:32.811Z,32.30
2022-12-29T17:08:23.965Z,33.67
2022-12-29T17:11:37.720Z,30.07
2022-12-29T17:14:29.704Z,30.73
2022-12-29T17:17:17.938Z,37.17
2022-12-29T17:20:06.125Z,37.57
2022-12-29T17:22:54.170Z,37.10
2022-12-29T17:25:40.590Z,37.53
2022-12-29T17:28:28.461Z,36.63
2022-12-29T17:31:16.120Z,31.20
2022-12-29T17:34:02.599Z,50.63
2022-12-29T17:36:48.869Z,35.87
2022-12-29T17:39:35.165Z,28.53
2022-12-29T17:42:21.573Z,33.33
2022-12-29T17:45:08.258Z,48.10
2022-12-29T17:47:56.325Z,68.47
2022-12-29T17:50:43.004Z,41.30
2022-12-29T17:53:30.396Z,24.00
2022-12-29T17:56:16.540Z,23.17
2022-12-29T17:59:02.947Z,36.57
2022-12-29T18:01:50.520Z,47.50
2022-12-29T18:04:38.414Z,39.47
2022-12-29T18:07:31.003Z,34.17
2022-12-29T18:10:21.032Z,31.47
2022-12-29T18:13:07.579Z,15.57
2022-12-29T18:15:54.551Z,17.27
2022-12-29T18:18:41.052Z,22.13
2022-12-29T18:21:28.525Z,18.60
2022-12-29T18:24:15.965Z,22.20
2022-12-29T18:27:03.567Z,24.70
2022-12-29T18:29:50.605Z,25.87
2022-12-29T18:32:37.105Z,25.47
2022-12-29T18:35:30.688Z,24.33
2022-12-29T18:38:18.563Z,22.30
2022-12-29T18:41:05.152Z,21.30
2022-12-29T18:43:51.502Z,23.03
2022-12-29T18:46:38.096Z,31.73
2022-12-29T18:49:25.547Z,39.47
2022-12-29T18:52:13.695Z,23.67
2022-12-29T18:55:01.727Z,16.57
2022-12-29T18:57:48.290Z,14.33
2022-12-29T19:00:34.699Z,14.30
2022-12-29T19:03:21.286Z,18.23
2022-12-29T19:06:08.275Z,38.20
2022-12-29T19:08:54.952Z,16.33
2022-12-29T19:11:42.965Z,14.83
2022-12-29T19:14:29.519Z,20.33
2022-12-29T19:17:15.881Z,35.17
2022-12-29T19:20:02.893Z,10.40
2022-12-29T19:22:49.665Z,69.23
2022-12-29T19:25:36.554Z,32.50
2022-12-29T19:28:26.158Z,37.67
2022-12-29T19:31:12.238Z,19.70
2022-12-29T19:33:58.811Z,20.00
2022-12-29T19:36:45.750Z,22.03
2022-12-29T19:39:32.449Z,20.73
2022-12-29T19:42:18.737Z,21.20
2022-12-29T19:45:06.729Z,21.20
2022-12-29T19:47:54.750Z,19.33
2022-12-29T19:50:41.338Z,12.27
2022-12-29T19:53:27.998Z,14.53
2022-12-29T19:56:14.931Z,15.17
2022-12-29T19:59:01.130Z,13.47
2022-12-29T20:01:48.907Z,14.30
2022-12-29T20:04:35.112Z,15.43
2022-12-29T20:07:22.140Z,14.40
2022-12-29T20:10:09.268Z,11.07
2022-12-29T20:12:55.661Z,11.87
2022-12-29T20:15:44.035Z,9.43
2022-12-29T20:18:32.131Z,12.73
2022-12-29T20:21:19.977Z,12.83
2022-12-29T20:24:06.672Z,13.40
2022-12-29T20:26:53.119Z,13.67
2022-12-29T20:29:40.914Z,15.90
2022-12-29T20:32:27.367Z,16.13
2022-12-29T20:35:15.110Z,17.20
2022-12-29T20:38:01.566Z,15.07
2022-12-29T20:40:47.951Z,12.07
2022-12-29T20:43:35.010Z,13.03
2022-12-29T20:46:25.221Z,11.87
2022-12-29T20:49:15.054Z,13.37
2022-12-29T20:52:06.738Z,13.37
2022-12-29T20:54:53.473Z,9.60
2022-12-29T20:58:14.079Z,13.23
2022-12-29T21:00:46.052Z,11.50
2022-12-29T21:03:32.582Z,12.13
2022-12-29T21:06:19.992Z,12.60
2022-12-29T21:09:07.764Z,10.47
2022-12-29T21:11:54.000Z,9.27
2022-12-29T21:14:45.420Z,9.87
2022-12-29T21:17:32.318Z,9.23
2022-12-29T21:20:20.738Z,10.97
2022-12-29T21:23:07.635Z,9.23
2022-12-29T21:25:56.046Z,9.10
2022-12-29T21:28:43.553Z,10.43
2022-12-29T21:31:30.986Z,9.57
2022-12-29T21:34:17.793Z,8.83
2022-12-29T21:37:04.479Z,9.03
2022-12-29T21:39:51.098Z,10.63
2022-12-29T21:42:38.917Z,9.73
2022-12-29T21:45:30.225Z,9.13
2022-12-29T21:48:24.138Z,8.07
2022-12-29T21:51:30.869Z,8.30
2022-12-29T21:54:35.336Z,7.70
2022-12-29T21:57:35.567Z,7.50
2022-12-29T22:00:40.895Z,11.67
2022-12-29T22:03:44.578Z,10.33
2022-12-29T22:06:48.288Z,8.30
2022-12-29T22:09:52.402Z,8.40
2022-12-29T22:12:56.814Z,7.90
2022-12-29T22:15:44.432Z,9.50
2022-12-29T22:18:30.938Z,7.93
2022-12-29T22:21:17.217Z,7.67
2022-12-29T22:24:03.419Z,8.80
2022-12-29T22:26:49.781Z,8.83
2022-12-29T22:29:35.966Z,8.33
2022-12-29T22:32:24.077Z,7.33
2022-12-29T22:35:11.228Z,7.83
2022-12-29T22:37:57.370Z,9.90
2022-12-29T22:40:43.656Z,9.13
2022-12-29T22:43:30.686Z,7.90
2022-12-29T22:46:16.951Z,8.30
2022-12-29T22:49:04.663Z,8.50
2022-12-29T22:51:51.591Z,7.23
2022-12-29T22:54:37.940Z,8.47
2022-12-29T22:57:24.377Z,7.87
2022-12-29T23:00:11.998Z,7.97
2022-12-29T23:02:58.292Z,9.60
2022-12-29T23:05:56.151Z,7.33
2022-12-29T23:08:43.245Z,6.53
2022-12-29T23:11:30.210Z,7.63
2022-12-29T23:14:17.409Z,8.83
2022-12-29T23:17:03.920Z,7.47
2022-12-29T23:19:50.501Z,6.77
2022-12-29T23:22:38.236Z,15.53
2022-12-29T23:25:24.593Z,14.30
2022-12-29T23:28:11.123Z,9.53
2022-12-29T23:30:57.414Z,7.90
2022-12-29T23:33:44.020Z,6.93
2022-12-29T23:36:31.214Z,7.63
2022-12-29T23:39:20.887Z,9.70
2022-12-29T23:42:07.147Z,8.30
2022-12-29T23:44:53.245Z,7.97
2022-12-29T23:47:39.799Z,7.00
2022-12-29T23:50:25.911Z,7.37
2022-12-29T23:53:12.967Z,7.17
2022-12-29T23:56:00.675Z,6.87
2022-12-29T23:58:47.470Z,5.87
